N858TH MROC-MNMG
Flight info
| Callsign | N858TH |
|---|---|
| Flight time | 0h 32m |
| Altitude | 28000 |
| Route | NANJO3U ULAPO UA502 LISPA |
| Aircraft | C750/M-SBDE3FGHRWXY/S |
Departure
| Time | 2026-04-26 20:59 |
|---|---|
| Airport | Juan Santamaría International Airport (MROC) |
Arrival
| Time | 2026-04-26 21:32 |
|---|---|
| Airport | Augusto C. Sandino (Managua) International Airport (MNMG) |
| Time | Latitude | Longitude | Altitude | Speed | Heading |
|---|---|---|---|---|---|
| 2026-04-26 20:39 | 9.99789 | -84.20746 | 3008 ft | 0 kts | 178° |
| 2026-04-26 20:52 | 9.99785 | -84.20747 | 3008 ft | 3 kts | 189° |
| 2026-04-26 20:52 | 9.99751 | -84.20786 | 3006 ft | 12 kts | 250° |
| 2026-04-26 20:53 | 9.99733 | -84.20884 | 3003 ft | 0 kts | 228° |
| 2026-04-26 20:53 | 9.99701 | -84.20924 | 3001 ft | 13 kts | 222° |
| 2026-04-26 20:53 | 9.99605 | -84.20908 | 3000 ft | 14 kts | 153° |
| 2026-04-26 20:53 | 9.99540 | -84.20872 | 3001 ft | 7 kts | 165° |
| 2026-04-26 20:54 | 9.99500 | -84.20865 | 3001 ft | 9 kts | 205° |
| 2026-04-26 20:54 | 9.99457 | -84.20970 | 2996 ft | 24 kts | 248° |
| 2026-04-26 20:54 | 9.99381 | -84.21161 | 2988 ft | 32 kts | 248° |
| 2026-04-26 20:54 | 9.99298 | -84.21400 | 2978 ft | 22 kts | 243° |
| 2026-04-26 20:55 | 9.99244 | -84.21535 | 2973 ft | 20 kts | 251° |
| 2026-04-26 20:55 | 9.99201 | -84.21658 | 2972 ft | 17 kts | 249° |
| 2026-04-26 20:55 | 9.99188 | -84.21761 | 2965 ft | 11 kts | 242° |
| 2026-04-26 20:55 | 9.99142 | -84.21814 | 2962 ft | 14 kts | 240° |
| 2026-04-26 20:56 | 9.99095 | -84.21930 | 2958 ft | 19 kts | 260° |
| 2026-04-26 20:56 | 9.99107 | -84.22055 | 2951 ft | 16 kts | 267° |
| 2026-04-26 20:56 | 9.99073 | -84.22144 | 2944 ft | 12 kts | 243° |
| 2026-04-26 20:56 | 9.99023 | -84.22188 | 2948 ft | 8 kts | 204° |
| 2026-04-26 20:57 | 9.98975 | -84.22190 | 2947 ft | 8 kts | 158° |
| 2026-04-26 20:57 | 9.98932 | -84.22174 | 2946 ft | 5 kts | 139° |
| 2026-04-26 20:57 | 9.98920 | -84.22141 | 2947 ft | 3 kts | 88° |
| 2026-04-26 20:57 | 9.98924 | -84.22132 | 2947 ft | 2 kts | 67° |
| 2026-04-26 20:58 | 9.98927 | -84.22125 | 2948 ft | 2 kts | 69° |
| 2026-04-26 20:58 | 9.98930 | -84.22118 | 2948 ft | 0 kts | 70° |
| 2026-04-26 20:59 | 9.99009 | -84.21897 | 2949 ft | 88 kts | 69° |
| 2026-04-26 20:59 | 9.99329 | -84.21054 | 3013 ft | 155 kts | 70° |
| 2026-04-26 20:59 | 9.99716 | -84.20003 | 3623 ft | 165 kts | 68° |
| 2026-04-26 20:59 | 10.00458 | -84.19057 | 4318 ft | 181 kts | 35° |
| 2026-04-26 21:00 | 10.01667 | -84.18539 | 5082 ft | 197 kts | 7° |
| 2026-04-26 21:00 | 10.03036 | -84.18721 | 5857 ft | 205 kts | 337° |
| 2026-04-26 21:00 | 10.04145 | -84.19638 | 6713 ft | 209 kts | 309° |
| 2026-04-26 21:00 | 10.05017 | -84.20829 | 7663 ft | 211 kts | 307° |
| 2026-04-26 21:01 | 10.05720 | -84.22158 | 8589 ft | 218 kts | 291° |
| 2026-04-26 21:01 | 10.06232 | -84.23617 | 9591 ft | 221 kts | 290° |
| 2026-04-26 21:01 | 10.06766 | -84.25081 | 10532 ft | 221 kts | 291° |
| 2026-04-26 21:01 | 10.07312 | -84.26543 | 11424 ft | 222 kts | 291° |
| 2026-04-26 21:02 | 10.07856 | -84.28010 | 12316 ft | 222 kts | 292° |
| 2026-04-26 21:02 | 10.08401 | -84.29485 | 13123 ft | 229 kts | 292° |
| 2026-04-26 21:02 | 10.09016 | -84.31142 | 13135 ft | 275 kts | 291° |
| 2026-04-26 21:02 | 10.09731 | -84.33072 | 13041 ft | 317 kts | 291° |
| 2026-04-26 21:03 | 10.10708 | -84.35215 | 12942 ft | 352 kts | 305° |
| 2026-04-26 21:03 | 10.12515 | -84.37013 | 12981 ft | 378 kts | 321° |
| 2026-04-26 21:03 | 10.14690 | -84.38678 | 12910 ft | 404 kts | 324° |
| 2026-04-26 21:03 | 10.17003 | -84.40416 | 12918 ft | 425 kts | 324° |
| 2026-04-26 21:04 | 10.19290 | -84.42275 | 13838 ft | 408 kts | 321° |
| 2026-04-26 21:04 | 10.21411 | -84.44022 | 15110 ft | 380 kts | 322° |
| 2026-04-26 21:04 | 10.23498 | -84.45668 | 15767 ft | 381 kts | 323° |
| 2026-04-26 21:04 | 10.25615 | -84.47314 | 16445 ft | 384 kts | 323° |
| 2026-04-26 21:05 | 10.27726 | -84.48996 | 17165 ft | 388 kts | 322° |
| 2026-04-26 21:05 | 10.29853 | -84.50711 | 17911 ft | 391 kts | 322° |
| 2026-04-26 21:05 | 10.32005 | -84.52427 | 18550 ft | 396 kts | 323° |
| 2026-04-26 21:05 | 10.34187 | -84.54154 | 19202 ft | 400 kts | 322° |
| 2026-04-26 21:06 | 10.36388 | -84.55905 | 19855 ft | 404 kts | 322° |
| 2026-04-26 21:06 | 10.38603 | -84.57675 | 20527 ft | 407 kts | 322° |
| 2026-04-26 21:06 | 10.40842 | -84.59459 | 21215 ft | 411 kts | 322° |
| 2026-04-26 21:06 | 10.43101 | -84.61256 | 21863 ft | 416 kts | 322° |
| 2026-04-26 21:07 | 10.45390 | -84.63079 | 22532 ft | 420 kts | 322° |
| 2026-04-26 21:07 | 10.47704 | -84.64924 | 23114 ft | 426 kts | 322° |
| 2026-04-26 21:07 | 10.50031 | -84.66789 | 23775 ft | 428 kts | 322° |
| 2026-04-26 21:07 | 10.52387 | -84.68670 | 24358 ft | 431 kts | 322° |
| 2026-04-26 21:08 | 10.54749 | -84.70565 | 24848 ft | 436 kts | 321° |
| 2026-04-26 21:08 | 10.57089 | -84.72489 | 25388 ft | 439 kts | 321° |
| 2026-04-26 21:08 | 10.59353 | -84.74647 | 25766 ft | 445 kts | 307° |
| 2026-04-26 21:08 | 10.60041 | -84.77590 | 25687 ft | 459 kts | 250° |
| 2026-04-26 21:09 | 10.57652 | -84.79718 | 25895 ft | 421 kts | 239° |
| 2026-04-26 21:09 | 10.57783 | -84.81948 | 30159 ft | 322 kts | 290° |
| 2026-04-26 21:09 | 10.59106 | -84.83839 | 28950 ft | 359 kts | 328° |
| 2026-04-26 21:09 | 10.61518 | -84.84943 | 28548 ft | 380 kts | 338° |
| 2026-04-26 21:10 | 10.63923 | -84.85988 | 28119 ft | 393 kts | 330° |
| 2026-04-26 21:10 | 10.66209 | -84.87675 | 27574 ft | 417 kts | 319° |
| 2026-04-26 21:10 | 10.68394 | -84.89703 | 27622 ft | 435 kts | 316° |
| 2026-04-26 21:10 | 10.70682 | -84.91815 | 27672 ft | 452 kts | 319° |
| 2026-04-26 21:11 | 10.73209 | -84.93794 | 27862 ft | 465 kts | 324° |
| 2026-04-26 21:11 | 10.75944 | -84.95661 | 27870 ft | 480 kts | 326° |
| 2026-04-26 21:11 | 10.78733 | -84.97614 | 27875 ft | 494 kts | 323° |
| 2026-04-26 21:11 | 10.81495 | -84.99777 | 27874 ft | 507 kts | 321° |
| 2026-04-26 21:12 | 10.84307 | -85.01995 | 27868 ft | 517 kts | 322° |
| 2026-04-26 21:12 | 10.87242 | -85.04149 | 27866 ft | 521 kts | 324° |
| 2026-04-26 21:12 | 10.90209 | -85.06288 | 27862 ft | 524 kts | 324° |
| 2026-04-26 21:12 | 10.93137 | -85.08502 | 27858 ft | 524 kts | 322° |
| 2026-04-26 21:13 | 10.96045 | -85.10746 | 27862 ft | 525 kts | 323° |
| 2026-04-26 21:13 | 10.98990 | -85.12950 | 27858 ft | 525 kts | 324° |
| 2026-04-26 21:13 | 11.01957 | -85.15128 | 27854 ft | 526 kts | 324° |
| 2026-04-26 21:13 | 11.04877 | -85.17355 | 27833 ft | 525 kts | 321° |
| 2026-04-26 21:14 | 11.07546 | -85.19854 | 27564 ft | 514 kts | 316° |
| 2026-04-26 21:14 | 11.10124 | -85.22347 | 26867 ft | 508 kts | 316° |
| 2026-04-26 21:14 | 11.12701 | -85.24783 | 26196 ft | 504 kts | 317° |
| 2026-04-26 21:14 | 11.15262 | -85.27188 | 25541 ft | 498 kts | 317° |
| 2026-04-26 21:15 | 11.17780 | -85.29589 | 24888 ft | 495 kts | 317° |
| 2026-04-26 21:15 | 11.20263 | -85.31975 | 24245 ft | 489 kts | 317° |
| 2026-04-26 21:15 | 11.22736 | -85.34330 | 23605 ft | 486 kts | 317° |
| 2026-04-26 21:15 | 11.25163 | -85.36626 | 22926 ft | 480 kts | 317° |
| 2026-04-26 21:16 | 11.27595 | -85.38941 | 22279 ft | 476 kts | 317° |
| 2026-04-26 21:16 | 11.29998 | -85.41240 | 21661 ft | 471 kts | 317° |
| 2026-04-26 21:16 | 11.32381 | -85.43512 | 21041 ft | 466 kts | 318° |
| 2026-04-26 21:16 | 11.34730 | -85.45746 | 20429 ft | 460 kts | 318° |
| 2026-04-26 21:17 | 11.37064 | -85.47969 | 19824 ft | 459 kts | 318° |
| 2026-04-26 21:17 | 11.39412 | -85.50135 | 19242 ft | 454 kts | 322° |
| 2026-04-26 21:17 | 11.41938 | -85.52054 | 18816 ft | 453 kts | 324° |
| 2026-04-26 21:17 | 11.44441 | -85.53975 | 18215 ft | 449 kts | 324° |
| 2026-04-26 21:18 | 11.46904 | -85.55898 | 17590 ft | 442 kts | 324° |
| 2026-04-26 21:18 | 11.49354 | -85.57784 | 17011 ft | 440 kts | 324° |
| 2026-04-26 21:18 | 11.51796 | -85.59642 | 16432 ft | 438 kts | 324° |
| 2026-04-26 21:18 | 11.54212 | -85.61494 | 15858 ft | 432 kts | 324° |
| 2026-04-26 21:19 | 11.56599 | -85.63338 | 15292 ft | 427 kts | 324° |
| 2026-04-26 21:19 | 11.58968 | -85.65164 | 14722 ft | 424 kts | 324° |
| 2026-04-26 21:19 | 11.61327 | -85.66971 | 14161 ft | 422 kts | 324° |
| 2026-04-26 21:19 | 11.63670 | -85.68770 | 13603 ft | 421 kts | 324° |
| 2026-04-26 21:20 | 11.65986 | -85.70556 | 13024 ft | 416 kts | 323° |
| 2026-04-26 21:20 | 11.68239 | -85.72293 | 12477 ft | 389 kts | 324° |
| 2026-04-26 21:20 | 11.70288 | -85.73870 | 11999 ft | 360 kts | 324° |
| 2026-04-26 21:20 | 11.72222 | -85.75357 | 11531 ft | 336 kts | 324° |
| 2026-04-26 21:21 | 11.74036 | -85.76753 | 11103 ft | 317 kts | 324° |
| 2026-04-26 21:21 | 11.75757 | -85.78079 | 10697 ft | 305 kts | 324° |
| 2026-04-26 21:21 | 11.77435 | -85.79370 | 10306 ft | 300 kts | 325° |
| 2026-04-26 21:21 | 11.79092 | -85.80645 | 9917 ft | 298 kts | 325° |
| 2026-04-26 21:22 | 11.80741 | -85.81916 | 9509 ft | 296 kts | 325° |
| 2026-04-26 21:22 | 11.82377 | -85.83177 | 9111 ft | 293 kts | 325° |
| 2026-04-26 21:22 | 11.84001 | -85.84428 | 8727 ft | 292 kts | 325° |
| 2026-04-26 21:23 | 11.87228 | -85.86915 | 7954 ft | 289 kts | 325° |
| 2026-04-26 21:23 | 11.88826 | -85.88147 | 7569 ft | 287 kts | 325° |
| 2026-04-26 21:23 | 11.90417 | -85.89374 | 7196 ft | 285 kts | 325° |
| 2026-04-26 21:23 | 11.91999 | -85.90594 | 6819 ft | 284 kts | 325° |
| 2026-04-26 21:24 | 11.93553 | -85.91792 | 6446 ft | 283 kts | 325° |
| 2026-04-26 21:24 | 11.95117 | -85.92999 | 6069 ft | 281 kts | 325° |
| 2026-04-26 21:24 | 11.96675 | -85.94201 | 5677 ft | 279 kts | 325° |
| 2026-04-26 21:24 | 11.98217 | -85.95390 | 5311 ft | 277 kts | 325° |
| 2026-04-26 21:25 | 11.99750 | -85.96574 | 4948 ft | 275 kts | 324° |
| 2026-04-26 21:25 | 12.01272 | -85.97749 | 4576 ft | 273 kts | 324° |
| 2026-04-26 21:25 | 12.02794 | -85.98897 | 4203 ft | 270 kts | 327° |
| 2026-04-26 21:25 | 12.04546 | -85.99490 | 3931 ft | 265 kts | 356° |
| 2026-04-26 21:26 | 12.06301 | -85.99393 | 3995 ft | 236 kts | 6° |
| 2026-04-26 21:26 | 12.07882 | -85.99199 | 3986 ft | 229 kts | 8° |
| 2026-04-26 21:26 | 12.09419 | -85.99012 | 3771 ft | 212 kts | 6° |
| 2026-04-26 21:26 | 12.10816 | -85.99138 | 3441 ft | 197 kts | 339° |
| 2026-04-26 21:27 | 12.11860 | -85.99922 | 3243 ft | 179 kts | 311° |
| 2026-04-26 21:27 | 12.12354 | -86.00955 | 3011 ft | 149 kts | 284° |
| 2026-04-26 21:27 | 12.12473 | -86.01935 | 2837 ft | 133 kts | 277° |
| 2026-04-26 21:27 | 12.12587 | -86.02870 | 2670 ft | 132 kts | 277° |
| 2026-04-26 21:28 | 12.12696 | -86.03797 | 2496 ft | 131 kts | 278° |
| 2026-04-26 21:28 | 12.12801 | -86.04724 | 2318 ft | 131 kts | 277° |
| 2026-04-26 21:28 | 12.12905 | -86.05650 | 2130 ft | 131 kts | 276° |
| 2026-04-26 21:28 | 12.13008 | -86.06567 | 1958 ft | 130 kts | 276° |
| 2026-04-26 21:29 | 12.13112 | -86.07487 | 1778 ft | 132 kts | 276° |
| 2026-04-26 21:29 | 12.13217 | -86.08420 | 1608 ft | 131 kts | 275° |
| 2026-04-26 21:29 | 12.13322 | -86.09352 | 1434 ft | 132 kts | 275° |
| 2026-04-26 21:29 | 12.13426 | -86.10276 | 1260 ft | 131 kts | 275° |
| 2026-04-26 21:30 | 12.13529 | -86.11191 | 1101 ft | 132 kts | 276° |
| 2026-04-26 21:30 | 12.13634 | -86.12130 | 929 ft | 134 kts | 275° |
| 2026-04-26 21:30 | 12.13739 | -86.13067 | 728 ft | 132 kts | 275° |
| 2026-04-26 21:30 | 12.13808 | -86.13710 | 556 ft | 133 kts | 273° |
| 2026-04-26 21:31 | 12.13955 | -86.14943 | 394 ft | 133 kts | 274° |
| 2026-04-26 21:31 | 12.14056 | -86.15883 | 230 ft | 132 kts | 273° |
| 2026-04-26 21:31 | 12.14151 | -86.16739 | 199 ft | 110 kts | 273° |
| 2026-04-26 21:31 | 12.14218 | -86.17323 | 197 ft | 55 kts | 280° |
| 2026-04-26 21:32 | 12.14235 | -86.17571 | 203 ft | 23 kts | 278° |
| 2026-04-26 21:32 | 12.14257 | -86.17731 | 200 ft | 22 kts | 277° |
| 2026-04-26 21:32 | 12.14313 | -86.17858 | 200 ft | 18 kts | 356° |
| 2026-04-26 21:32 | 12.14387 | -86.17765 | 200 ft | 17 kts | 66° |
| 2026-04-26 21:33 | 12.14390 | -86.17659 | 202 ft | 13 kts | 93° |
| 2026-04-26 21:33 | 12.14385 | -86.17598 | 197 ft | 13 kts | 96° |
| 2026-04-26 21:33 | 12.14376 | -86.17508 | 201 ft | 12 kts | 96° |
| 2026-04-26 21:33 | 12.14362 | -86.17413 | 208 ft | 19 kts | 99° |
| 2026-04-26 21:34 | 12.14340 | -86.17224 | 200 ft | 30 kts | 102° |
| 2026-04-26 21:34 | 12.14326 | -86.17025 | 197 ft | 27 kts | 92° |
| 2026-04-26 21:34 | 12.14329 | -86.16948 | 197 ft | 0 kts | 341° |
| 2026-04-26 21:34 | 12.14351 | -86.16965 | 197 ft | 9 kts | 352° |
| 2026-04-26 21:35 | 12.14385 | -86.16962 | 201 ft | 0 kts | 7° |